sensor_id;sensor_type;location;lat;lon;timestamp;P1;durP1;ratioP1;P2;durP2;ratioP2
75626;SDS011;67372;49.404;11.034;2023-04-03T00:00:16;2.55;;;1.92;;
75626;SDS011;67372;49.404;11.034;2023-04-03T00:02:43;4.05;;;1.77;;
75626;SDS011;67372;49.404;11.034;2023-04-03T00:05:09;4.38;;;1.40;;
75626;SDS011;67372;49.404;11.034;2023-04-03T00:07:36;3.25;;;1.77;;
75626;SDS011;67372;49.404;11.034;2023-04-03T00:10:02;2.97;;;1.83;;
75626;SDS011;67372;49.404;11.034;2023-04-03T00:12:29;2.63;;;1.80;;
75626;SDS011;67372;49.404;11.034;2023-04-03T00:14:55;3.05;;;1.92;;
75626;SDS011;67372;49.404;11.034;2023-04-03T00:17:21;2.53;;;1.60;;
75626;SDS011;67372;49.404;11.034;2023-04-03T00:19:48;4.03;;;1.90;;
75626;SDS011;67372;49.404;11.034;2023-04-03T00:22:14;1.88;;;1.48;;
75626;SDS011;67372;49.404;11.034;2023-04-03T00:24:40;2.97;;;1.75;;
75626;SDS011;67372;49.404;11.034;2023-04-03T00:27:07;3.05;;;1.90;;
75626;SDS011;67372;49.404;11.034;2023-04-03T00:29:33;2.65;;;1.63;;
75626;SDS011;67372;49.404;11.034;2023-04-03T00:31:59;5.55;;;2.17;;
75626;SDS011;67372;49.404;11.034;2023-04-03T00:34:26;4.13;;;1.60;;
75626;SDS011;67372;49.404;11.034;2023-04-03T00:36:52;3.05;;;1.90;;
75626;SDS011;67372;49.404;11.034;2023-04-03T00:39:18;2.88;;;1.63;;
75626;SDS011;67372;49.404;11.034;2023-04-03T00:41:45;2.35;;;1.70;;
75626;SDS011;67372;49.404;11.034;2023-04-03T00:44:18;4.45;;;2.10;;
75626;SDS011;67372;49.404;11.034;2023-04-03T00:47:08;3.22;;;1.65;;
75626;SDS011;67372;49.404;11.034;2023-04-03T00:49:37;2.55;;;1.60;;
75626;SDS011;67372;49.404;11.034;2023-04-03T00:52:06;3.75;;;2.03;;
75626;SDS011;67372;49.404;11.034;2023-04-03T00:54:37;2.75;;;1.90;;
75626;SDS011;67372;49.404;11.034;2023-04-03T00:57:05;3.25;;;2.03;;
75626;SDS011;67372;49.404;11.034;2023-04-03T00:59:34;3.55;;;2.00;;
75626;SDS011;67372;49.404;11.034;2023-04-03T01:02:04;2.97;;;1.67;;
75626;SDS011;67372;49.404;11.034;2023-04-03T01:04:32;3.35;;;1.70;;
75626;SDS011;67372;49.404;11.034;2023-04-03T01:07:01;2.50;;;1.88;;
75626;SDS011;67372;49.404;11.034;2023-04-03T01:09:42;2.08;;;1.42;;
75626;SDS011;67372;49.404;11.034;2023-04-03T01:14:44;2.92;;;1.58;;
75626;SDS011;67372;49.404;11.034;2023-04-03T01:19:57;1.98;;;1.70;;
75626;SDS011;67372;49.404;11.034;2023-04-03T01:25:40;2.35;;;1.75;;
75626;SDS011;67372;49.404;11.034;2023-04-03T01:28:11;2.42;;;1.65;;
75626;SDS011;67372;49.404;11.034;2023-04-03T01:30:41;2.40;;;1.90;;
75626;SDS011;67372;49.404;11.034;2023-04-03T01:33:14;3.28;;;1.95;;
75626;SDS011;67372;49.404;11.034;2023-04-03T01:35:40;2.58;;;1.60;;
75626;SDS011;67372;49.404;11.034;2023-04-03T01:38:07;2.95;;;1.67;;
75626;SDS011;67372;49.404;11.034;2023-04-03T01:40:33;2.97;;;1.60;;
75626;SDS011;67372;49.404;11.034;2023-04-03T01:43:00;4.13;;;1.77;;
75626;SDS011;67372;49.404;11.034;2023-04-03T01:45:26;2.83;;;1.73;;
75626;SDS011;67372;49.404;11.034;2023-04-03T01:47:53;2.00;;;1.60;;
75626;SDS011;67372;49.404;11.034;2023-04-03T01:50:20;2.53;;;1.80;;
75626;SDS011;67372;49.404;11.034;2023-04-03T01:52:46;3.05;;;1.80;;
75626;SDS011;67372;49.404;11.034;2023-04-03T01:55:13;2.42;;;1.83;;
75626;SDS011;67372;49.404;11.034;2023-04-03T01:57:39;2.97;;;1.75;;
75626;SDS011;67372;49.404;11.034;2023-04-03T02:00:05;2.28;;;1.60;;
75626;SDS011;67372;49.404;11.034;2023-04-03T02:02:32;2.33;;;1.38;;
75626;SDS011;67372;49.404;11.034;2023-04-03T02:04:59;1.92;;;1.45;;
75626;SDS011;67372;49.404;11.034;2023-04-03T02:07:25;2.88;;;1.50;;
75626;SDS011;67372;49.404;11.034;2023-04-03T02:09:51;2.67;;;1.92;;
75626;SDS011;67372;49.404;11.034;2023-04-03T02:12:18;4.20;;;1.98;;
75626;SDS011;67372;49.404;11.034;2023-04-03T02:14:44;3.30;;;1.85;;
75626;SDS011;67372;49.404;11.034;2023-04-03T02:17:10;2.65;;;1.60;;
75626;SDS011;67372;49.404;11.034;2023-04-03T02:19:37;1.98;;;1.58;;
75626;SDS011;67372;49.404;11.034;2023-04-03T02:22:03;2.70;;;1.80;;
75626;SDS011;67372;49.404;11.034;2023-04-03T02:24:30;2.70;;;1.60;;
75626;SDS011;67372;49.404;11.034;2023-04-03T02:26:57;2.25;;;1.52;;
75626;SDS011;67372;49.404;11.034;2023-04-03T02:29:24;3.08;;;1.67;;
75626;SDS011;67372;49.404;11.034;2023-04-03T02:31:50;2.58;;;1.48;;
75626;SDS011;67372;49.404;11.034;2023-04-03T02:34:17;3.20;;;1.60;;
75626;SDS011;67372;49.404;11.034;2023-04-03T02:36:44;2.30;;;1.60;;
75626;SDS011;67372;49.404;11.034;2023-04-03T02:39:10;2.28;;;1.52;;
75626;SDS011;67372;49.404;11.034;2023-04-03T02:41:36;2.95;;;1.58;;
75626;SDS011;67372;49.404;11.034;2023-04-03T02:44:03;2.90;;;1.55;;
75626;SDS011;67372;49.404;11.034;2023-04-03T02:46:31;3.10;;;1.63;;
75626;SDS011;67372;49.404;11.034;2023-04-03T02:48:59;1.88;;;1.67;;
75626;SDS011;67372;49.404;11.034;2023-04-03T02:51:25;3.17;;;1.65;;
75626;SDS011;67372;49.404;11.034;2023-04-03T02:53:51;1.80;;;1.40;;
75626;SDS011;67372;49.404;11.034;2023-04-03T02:56:18;3.03;;;1.50;;
75626;SDS011;67372;49.404;11.034;2023-04-03T02:58:44;2.63;;;1.73;;
75626;SDS011;67372;49.404;11.034;2023-04-03T03:01:11;3.42;;;1.60;;
75626;SDS011;67372;49.404;11.034;2023-04-03T03:03:38;3.20;;;1.70;;
75626;SDS011;67372;49.404;11.034;2023-04-03T03:06:05;2.97;;;1.70;;
75626;SDS011;67372;49.404;11.034;2023-04-03T03:08:33;2.03;;;1.40;;
75626;SDS011;67372;49.404;11.034;2023-04-03T03:11:00;4.47;;;1.80;;
75626;SDS011;67372;49.404;11.034;2023-04-03T03:13:27;2.60;;;1.50;;
75626;SDS011;67372;49.404;11.034;2023-04-03T03:15:53;3.25;;;1.70;;
75626;SDS011;67372;49.404;11.034;2023-04-03T03:18:20;2.08;;;1.45;;
75626;SDS011;67372;49.404;11.034;2023-04-03T03:20:50;3.13;;;1.73;;
75626;SDS011;67372;49.404;11.034;2023-04-03T03:23:21;3.80;;;1.92;;
75626;SDS011;67372;49.404;11.034;2023-04-03T03:25:53;2.55;;;1.58;;
75626;SDS011;67372;49.404;11.034;2023-04-03T03:28:24;2.97;;;1.75;;
75626;SDS011;67372;49.404;11.034;2023-04-03T03:30:51;3.03;;;1.80;;
75626;SDS011;67372;49.404;11.034;2023-04-03T03:33:17;4.72;;;1.80;;
75626;SDS011;67372;49.404;11.034;2023-04-03T03:35:44;4.57;;;2.03;;
75626;SDS011;67372;49.404;11.034;2023-04-03T03:38:10;2.50;;;1.50;;
75626;SDS011;67372;49.404;11.034;2023-04-03T03:40:37;2.65;;;1.63;;
75626;SDS011;67372;49.404;11.034;2023-04-03T03:43:03;3.35;;;1.73;;
75626;SDS011;67372;49.404;11.034;2023-04-03T03:45:29;3.47;;;1.80;;
75626;SDS011;67372;49.404;11.034;2023-04-03T03:47:56;2.58;;;1.83;;
75626;SDS011;67372;49.404;11.034;2023-04-03T03:50:22;3.58;;;2.10;;
75626;SDS011;67372;49.404;11.034;2023-04-03T03:52:49;3.15;;;1.90;;
75626;SDS011;67372;49.404;11.034;2023-04-03T03:55:15;3.88;;;1.92;;
75626;SDS011;67372;49.404;11.034;2023-04-03T03:57:42;4.72;;;1.80;;
75626;SDS011;67372;49.404;11.034;2023-04-03T04:00:08;2.75;;;1.80;;
75626;SDS011;67372;49.404;11.034;2023-04-03T04:02:35;2.95;;;1.92;;
75626;SDS011;67372;49.404;11.034;2023-04-03T04:05:02;6.32;;;2.33;;
75626;SDS011;67372;49.404;11.034;2023-04-03T04:07:28;3.95;;;2.08;;
75626;SDS011;67372;49.404;11.034;2023-04-03T04:09:55;3.78;;;2.10;;
75626;SDS011;67372;49.404;11.034;2023-04-03T04:12:21;4.22;;;2.03;;
75626;SDS011;67372;49.404;11.034;2023-04-03T04:14:47;3.13;;;2.20;;
75626;SDS011;67372;49.404;11.034;2023-04-03T04:17:14;3.20;;;2.13;;
75626;SDS011;67372;49.404;11.034;2023-04-03T04:19:40;3.72;;;2.05;;
75626;SDS011;67372;49.404;11.034;2023-04-03T04:22:06;4.47;;;2.20;;
75626;SDS011;67372;49.404;11.034;2023-04-03T04:24:33;3.90;;;2.33;;
75626;SDS011;67372;49.404;11.034;2023-04-03T04:26:59;4.40;;;2.30;;
75626;SDS011;67372;49.404;11.034;2023-04-03T04:29:26;5.50;;;2.33;;
75626;SDS011;67372;49.404;11.034;2023-04-03T04:31:52;4.00;;;2.30;;
75626;SDS011;67372;49.404;11.034;2023-04-03T04:34:21;4.70;;;2.30;;
75626;SDS011;67372;49.404;11.034;2023-04-03T04:37:01;4.50;;;2.08;;
75626;SDS011;67372;49.404;11.034;2023-04-03T04:39:31;5.43;;;2.75;;
75626;SDS011;67372;49.404;11.034;2023-04-03T04:41:57;7.45;;;2.60;;
75626;SDS011;67372;49.404;11.034;2023-04-03T04:44:23;4.35;;;2.42;;
75626;SDS011;67372;49.404;11.034;2023-04-03T04:46:49;3.97;;;2.40;;
75626;SDS011;67372;49.404;11.034;2023-04-03T04:49:16;4.93;;;2.38;;
75626;SDS011;67372;49.404;11.034;2023-04-03T04:51:43;7.18;;;2.75;;
75626;SDS011;67372;49.404;11.034;2023-04-03T04:54:17;6.13;;;2.72;;
75626;SDS011;67372;49.404;11.034;2023-04-03T04:56:44;8.13;;;2.95;;
75626;SDS011;67372;49.404;11.034;2023-04-03T04:59:10;4.57;;;2.47;;
75626;SDS011;67372;49.404;11.034;2023-04-03T05:01:36;4.38;;;2.78;;
75626;SDS011;67372;49.404;11.034;2023-04-03T05:04:03;6.22;;;3.20;;
75626;SDS011;67372;49.404;11.034;2023-04-03T05:06:29;5.25;;;2.50;;
75626;SDS011;67372;49.404;11.034;2023-04-03T05:08:55;6.93;;;3.55;;
75626;SDS011;67372;49.404;11.034;2023-04-03T05:11:22;6.55;;;2.63;;
75626;SDS011;67372;49.404;11.034;2023-04-03T05:13:50;4.65;;;2.42;;
75626;SDS011;67372;49.404;11.034;2023-04-03T05:16:16;3.80;;;2.25;;
75626;SDS011;67372;49.404;11.034;2023-04-03T05:18:43;8.25;;;2.22;;
75626;SDS011;67372;49.404;11.034;2023-04-03T05:21:09;4.45;;;2.40;;
75626;SDS011;67372;49.404;11.034;2023-04-03T05:23:35;5.30;;;2.88;;
75626;SDS011;67372;49.404;11.034;2023-04-03T05:26:02;4.65;;;2.40;;
75626;SDS011;67372;49.404;11.034;2023-04-03T05:28:28;4.45;;;2.80;;
75626;SDS011;67372;49.404;11.034;2023-04-03T05:30:55;4.05;;;2.70;;
75626;SDS011;67372;49.404;11.034;2023-04-03T05:33:23;5.13;;;2.80;;
75626;SDS011;67372;49.404;11.034;2023-04-03T05:35:50;4.32;;;2.50;;
75626;SDS011;67372;49.404;11.034;2023-04-03T05:38:19;5.28;;;2.85;;
75626;SDS011;67372;49.404;11.034;2023-04-03T05:40:46;4.95;;;2.42;;
75626;SDS011;67372;49.404;11.034;2023-04-03T05:43:12;8.00;;;2.80;;
75626;SDS011;67372;49.404;11.034;2023-04-03T05:45:39;3.13;;;2.22;;
75626;SDS011;67372;49.404;11.034;2023-04-03T05:48:05;6.95;;;3.13;;
75626;SDS011;67372;49.404;11.034;2023-04-03T05:50:32;4.97;;;2.80;;
75626;SDS011;67372;49.404;11.034;2023-04-03T05:52:58;4.15;;;2.40;;
75626;SDS011;67372;49.404;11.034;2023-04-03T05:55:25;4.22;;;2.65;;
75626;SDS011;67372;49.404;11.034;2023-04-03T05:57:52;4.05;;;2.28;;
75626;SDS011;67372;49.404;11.034;2023-04-03T06:00:18;3.28;;;2.53;;
75626;SDS011;67372;49.404;11.034;2023-04-03T06:02:45;5.53;;;2.72;;
75626;SDS011;67372;49.404;11.034;2023-04-03T06:05:12;3.63;;;2.40;;
75626;SDS011;67372;49.404;11.034;2023-04-03T06:07:38;4.40;;;2.38;;
75626;SDS011;67372;49.404;11.034;2023-04-03T06:10:04;3.67;;;2.53;;
75626;SDS011;67372;49.404;11.034;2023-04-03T06:12:32;3.72;;;2.47;;
75626;SDS011;67372;49.404;11.034;2023-04-03T06:14:58;3.35;;;2.40;;
75626;SDS011;67372;49.404;11.034;2023-04-03T06:17:24;3.22;;;2.15;;
75626;SDS011;67372;49.404;11.034;2023-04-03T06:19:51;2.75;;;2.20;;
75626;SDS011;67372;49.404;11.034;2023-04-03T06:22:17;7.00;;;2.33;;
75626;SDS011;67372;49.404;11.034;2023-04-03T06:24:43;5.28;;;2.72;;
75626;SDS011;67372;49.404;11.034;2023-04-03T06:27:10;4.60;;;2.60;;
75626;SDS011;67372;49.404;11.034;2023-04-03T06:29:37;3.15;;;2.03;;
75626;SDS011;67372;49.404;11.034;2023-04-03T06:32:03;4.40;;;2.13;;
75626;SDS011;67372;49.404;11.034;2023-04-03T06:34:29;5.60;;;2.45;;
75626;SDS011;67372;49.404;11.034;2023-04-03T06:36:56;3.00;;;2.33;;
75626;SDS011;67372;49.404;11.034;2023-04-03T06:39:22;5.03;;;2.22;;
75626;SDS011;67372;49.404;11.034;2023-04-03T06:41:49;4.68;;;2.13;;
75626;SDS011;67372;49.404;11.034;2023-04-03T06:44:16;5.13;;;2.38;;
75626;SDS011;67372;49.404;11.034;2023-04-03T06:46:43;4.38;;;2.05;;
75626;SDS011;67372;49.404;11.034;2023-04-03T06:49:10;5.82;;;2.55;;
75626;SDS011;67372;49.404;11.034;2023-04-03T06:51:37;5.25;;;2.40;;
75626;SDS011;67372;49.404;11.034;2023-04-03T06:54:04;2.85;;;2.22;;
75626;SDS011;67372;49.404;11.034;2023-04-03T06:58:58;4.30;;;1.92;;
75626;SDS011;67372;49.404;11.034;2023-04-03T07:01:25;4.57;;;2.30;;
75626;SDS011;67372;49.404;11.034;2023-04-03T07:03:52;6.65;;;2.33;;
75626;SDS011;67372;49.404;11.034;2023-04-03T07:06:19;3.03;;;2.15;;
75626;SDS011;67372;49.404;11.034;2023-04-03T07:08:45;7.13;;;3.33;;
75626;SDS011;67372;49.404;11.034;2023-04-03T07:11:12;5.00;;;2.45;;
75626;SDS011;67372;49.404;11.034;2023-04-03T07:13:38;5.28;;;2.40;;
75626;SDS011;67372;49.404;11.034;2023-04-03T07:16:05;3.22;;;2.08;;
75626;SDS011;67372;49.404;11.034;2023-04-03T07:18:32;5.38;;;2.30;;
75626;SDS011;67372;49.404;11.034;2023-04-03T07:20:59;3.92;;;2.20;;
75626;SDS011;67372;49.404;11.034;2023-04-03T07:23:26;4.00;;;1.98;;
75626;SDS011;67372;49.404;11.034;2023-04-03T07:25:53;3.75;;;2.13;;
75626;SDS011;67372;49.404;11.034;2023-04-03T07:28:19;4.78;;;2.40;;
75626;SDS011;67372;49.404;11.034;2023-04-03T07:30:54;3.95;;;2.13;;
75626;SDS011;67372;49.404;11.034;2023-04-03T07:33:25;4.03;;;2.35;;
75626;SDS011;67372;49.404;11.034;2023-04-03T07:35:52;4.03;;;2.30;;
75626;SDS011;67372;49.404;11.034;2023-04-03T07:38:18;3.47;;;2.28;;
75626;SDS011;67372;49.404;11.034;2023-04-03T07:40:45;4.28;;;2.00;;
75626;SDS011;67372;49.404;11.034;2023-04-03T07:43:16;5.30;;;1.90;;
75626;SDS011;67372;49.404;11.034;2023-04-03T07:45:43;3.30;;;2.08;;
75626;SDS011;67372;49.404;11.034;2023-04-03T07:48:11;3.53;;;1.75;;
75626;SDS011;67372;49.404;11.034;2023-04-03T07:50:41;3.65;;;2.42;;
75626;SDS011;67372;49.404;11.034;2023-04-03T07:53:08;5.05;;;2.30;;
75626;SDS011;67372;49.404;11.034;2023-04-03T07:55:34;3.75;;;2.10;;
75626;SDS011;67372;49.404;11.034;2023-04-03T07:58:01;2.92;;;2.08;;
75626;SDS011;67372;49.404;11.034;2023-04-03T08:00:28;6.22;;;2.25;;
75626;SDS011;67372;49.404;11.034;2023-04-03T08:02:54;5.38;;;2.60;;
75626;SDS011;67372;49.404;11.034;2023-04-03T08:05:21;3.05;;;1.92;;
75626;SDS011;67372;49.404;11.034;2023-04-03T08:07:47;4.55;;;1.90;;
75626;SDS011;67372;49.404;11.034;2023-04-03T08:10:14;3.90;;;2.30;;
75626;SDS011;67372;49.404;11.034;2023-04-03T08:12:41;5.88;;;2.20;;
75626;SDS011;67372;49.404;11.034;2023-04-03T08:15:07;3.65;;;1.98;;
75626;SDS011;67372;49.404;11.034;2023-04-03T08:17:34;4.65;;;2.50;;
75626;SDS011;67372;49.404;11.034;2023-04-03T08:20:02;4.63;;;2.40;;
75626;SDS011;67372;49.404;11.034;2023-04-03T08:22:29;5.00;;;2.30;;
75626;SDS011;67372;49.404;11.034;2023-04-03T08:24:56;3.83;;;2.17;;
75626;SDS011;67372;49.404;11.034;2023-04-03T08:27:25;5.90;;;2.58;;
75626;SDS011;67372;49.404;11.034;2023-04-03T08:29:52;6.03;;;2.17;;
75626;SDS011;67372;49.404;11.034;2023-04-03T08:32:18;4.55;;;2.10;;
75626;SDS011;67372;49.404;11.034;2023-04-03T08:34:44;3.90;;;2.15;;
75626;SDS011;67372;49.404;11.034;2023-04-03T08:37:11;3.53;;;1.90;;
75626;SDS011;67372;49.404;11.034;2023-04-03T08:39:37;4.05;;;2.00;;
75626;SDS011;67372;49.404;11.034;2023-04-03T08:42:05;3.83;;;1.85;;
75626;SDS011;67372;49.404;11.034;2023-04-03T08:49:57;2.67;;;1.80;;
75626;SDS011;67372;49.404;11.034;2023-04-03T08:52:35;4.32;;;1.92;;
75626;SDS011;67372;49.404;11.034;2023-04-03T08:55:05;4.45;;;2.28;;
75626;SDS011;67372;49.404;11.034;2023-04-03T08:57:40;4.07;;;1.90;;
75626;SDS011;67372;49.404;11.034;2023-04-03T09:02:47;4.85;;;2.28;;
75626;SDS011;67372;49.404;11.034;2023-04-03T09:05:16;2.58;;;1.85;;
75626;SDS011;67372;49.404;11.034;2023-04-03T09:07:59;4.80;;;2.05;;
75626;SDS011;67372;49.404;11.034;2023-04-03T09:10:30;3.58;;;1.92;;
75626;SDS011;67372;49.404;11.034;2023-04-03T09:13:05;2.45;;;1.80;;
75626;SDS011;67372;49.404;11.034;2023-04-03T09:15:39;3.30;;;1.48;;
75626;SDS011;67372;49.404;11.034;2023-04-03T09:21:08;3.42;;;1.77;;
75626;SDS011;67372;49.404;11.034;2023-04-03T09:23:46;3.22;;;1.60;;
75626;SDS011;67372;49.404;11.034;2023-04-03T09:26:26;3.50;;;1.77;;
75626;SDS011;67372;49.404;11.034;2023-04-03T09:28:57;2.40;;;1.70;;
75626;SDS011;67372;49.404;11.034;2023-04-03T09:31:27;5.40;;;1.48;;
75626;SDS011;67372;49.404;11.034;2023-04-03T09:33:58;4.95;;;1.98;;
75626;SDS011;67372;49.404;11.034;2023-04-03T09:36:39;3.67;;;1.67;;
75626;SDS011;67372;49.404;11.034;2023-04-03T09:39:11;3.40;;;1.90;;
75626;SDS011;67372;49.404;11.034;2023-04-03T09:41:57;4.85;;;1.92;;
75626;SDS011;67372;49.404;11.034;2023-04-03T09:44:32;4.40;;;1.80;;
75626;SDS011;67372;49.404;11.034;2023-04-03T09:46:59;4.15;;;1.80;;
75626;SDS011;67372;49.404;11.034;2023-04-03T09:49:42;4.95;;;2.63;;
75626;SDS011;67372;49.404;11.034;2023-04-03T09:52:19;4.75;;;2.00;;
75626;SDS011;67372;49.404;11.034;2023-04-03T09:54:49;4.40;;;2.10;;
75626;SDS011;67372;49.404;11.034;2023-04-03T09:57:15;4.55;;;1.55;;
75626;SDS011;67372;49.404;11.034;2023-04-03T09:59:57;2.88;;;1.80;;
75626;SDS011;67372;49.404;11.034;2023-04-03T10:02:40;4.30;;;1.60;;
75626;SDS011;67372;49.404;11.034;2023-04-03T10:05:25;2.97;;;1.70;;
75626;SDS011;67372;49.404;11.034;2023-04-03T10:07:51;2.67;;;1.45;;
75626;SDS011;67372;49.404;11.034;2023-04-03T10:10:28;3.13;;;1.50;;
75626;SDS011;67372;49.404;11.034;2023-04-03T10:13:05;3.40;;;1.75;;
75626;SDS011;67372;49.404;11.034;2023-04-03T10:15:36;2.30;;;1.52;;
75626;SDS011;67372;49.404;11.034;2023-04-03T10:18:15;2.90;;;1.77;;
75626;SDS011;67372;49.404;11.034;2023-04-03T10:21:09;4.32;;;1.60;;
75626;SDS011;67372;49.404;11.034;2023-04-03T10:24:02;2.50;;;1.52;;
75626;SDS011;67372;49.404;11.034;2023-04-03T10:32:02;2.92;;;1.80;;
75626;SDS011;67372;49.404;11.034;2023-04-03T10:34:47;4.70;;;1.42;;
75626;SDS011;67372;49.404;11.034;2023-04-03T10:48:57;3.08;;;1.60;;
75626;SDS011;67372;49.404;11.034;2023-04-03T10:51:53;2.58;;;1.60;;
75626;SDS011;67372;49.404;11.034;2023-04-03T10:54:36;2.75;;;1.60;;
75626;SDS011;67372;49.404;11.034;2023-04-03T10:57:08;3.28;;;1.60;;
75626;SDS011;67372;49.404;11.034;2023-04-03T11:04:59;2.08;;;1.50;;
75626;SDS011;67372;49.404;11.034;2023-04-03T11:07:34;3.30;;;2.08;;
75626;SDS011;67372;49.404;11.034;2023-04-03T11:10:15;2.22;;;1.20;;
75626;SDS011;67372;49.404;11.034;2023-04-03T11:12:48;3.25;;;1.70;;
75626;SDS011;67372;49.404;11.034;2023-04-03T11:15:19;2.20;;;1.30;;
75626;SDS011;67372;49.404;11.034;2023-04-03T11:17:50;2.63;;;1.40;;
75626;SDS011;67372;49.404;11.034;2023-04-03T11:20:27;2.08;;;1.60;;
75626;SDS011;67372;49.404;11.034;2023-04-03T11:26:08;3.28;;;1.80;;
75626;SDS011;67372;49.404;11.034;2023-04-03T11:28:37;2.60;;;1.42;;
75626;SDS011;67372;49.404;11.034;2023-04-03T11:36:33;4.90;;;1.92;;
75626;SDS011;67372;49.404;11.034;2023-04-03T11:39:10;3.45;;;1.77;;
75626;SDS011;67372;49.404;11.034;2023-04-03T11:41:45;2.72;;;1.70;;
75626;SDS011;67372;49.404;11.034;2023-04-03T11:47:08;2.22;;;1.50;;
75626;SDS011;67372;49.404;11.034;2023-04-03T11:57:46;2.75;;;1.63;;
75626;SDS011;67372;49.404;11.034;2023-04-03T12:05:52;2.22;;;1.25;;
75626;SDS011;67372;49.404;11.034;2023-04-03T12:16:24;2.58;;;1.27;;
75626;SDS011;67372;49.404;11.034;2023-04-03T12:19:03;3.28;;;1.27;;
75626;SDS011;67372;49.404;11.034;2023-04-03T12:22:05;2.13;;;1.30;;
75626;SDS011;67372;49.404;11.034;2023-04-03T12:24:38;1.70;;;1.10;;
75626;SDS011;67372;49.404;11.034;2023-04-03T12:27:15;2.92;;;1.73;;
75626;SDS011;67372;49.404;11.034;2023-04-03T12:29:54;2.17;;;1.23;;
75626;SDS011;67372;49.404;11.034;2023-04-03T12:40:57;3.70;;;1.67;;
75626;SDS011;67372;49.404;11.034;2023-04-03T12:43:41;3.13;;;1.40;;
75626;SDS011;67372;49.404;11.034;2023-04-03T12:46:20;2.25;;;1.30;;
75626;SDS011;67372;49.404;11.034;2023-04-03T12:48:50;3.42;;;1.40;;
75626;SDS011;67372;49.404;11.034;2023-04-03T12:51:22;2.08;;;1.30;;
75626;SDS011;67372;49.404;11.034;2023-04-03T12:54:03;2.78;;;1.48;;
75626;SDS011;67372;49.404;11.034;2023-04-03T12:56:45;1.92;;;1.30;;
75626;SDS011;67372;49.404;11.034;2023-04-03T12:59:16;2.40;;;1.38;;
75626;SDS011;67372;49.404;11.034;2023-04-03T13:01:53;2.08;;;1.20;;
75626;SDS011;67372;49.404;11.034;2023-04-03T13:04:21;2.70;;;1.60;;
75626;SDS011;67372;49.404;11.034;2023-04-03T13:06:48;3.17;;;1.23;;
75626;SDS011;67372;49.404;11.034;2023-04-03T13:09:25;3.38;;;1.67;;
75626;SDS011;67372;49.404;11.034;2023-04-03T13:11:56;3.13;;;1.75;;
75626;SDS011;67372;49.404;11.034;2023-04-03T13:14:26;3.30;;;1.50;;
75626;SDS011;67372;49.404;11.034;2023-04-03T13:16:54;3.60;;;1.33;;
75626;SDS011;67372;49.404;11.034;2023-04-03T13:19:26;1.45;;;1.15;;
75626;SDS011;67372;49.404;11.034;2023-04-03T13:22:05;1.67;;;1.15;;
75626;SDS011;67372;49.404;11.034;2023-04-03T13:24:35;2.30;;;1.58;;
75626;SDS011;67372;49.404;11.034;2023-04-03T13:27:04;2.40;;;1.60;;
75626;SDS011;67372;49.404;11.034;2023-04-03T13:29:32;3.03;;;1.40;;
75626;SDS011;67372;49.404;11.034;2023-04-03T13:32:01;2.85;;;1.50;;
75626;SDS011;67372;49.404;11.034;2023-04-03T13:34:38;2.42;;;1.40;;
75626;SDS011;67372;49.404;11.034;2023-04-03T13:37:06;3.67;;;1.60;;
75626;SDS011;67372;49.404;11.034;2023-04-03T13:39:45;1.80;;;1.40;;
75626;SDS011;67372;49.404;11.034;2023-04-03T13:42:24;2.10;;;1.23;;
75626;SDS011;67372;49.404;11.034;2023-04-03T13:47:52;2.25;;;1.50;;
75626;SDS011;67372;49.404;11.034;2023-04-03T13:50:24;3.22;;;1.52;;
75626;SDS011;67372;49.404;11.034;2023-04-03T13:52:53;1.88;;;1.40;;
75626;SDS011;67372;49.404;11.034;2023-04-03T13:55:28;3.17;;;1.40;;
75626;SDS011;67372;49.404;11.034;2023-04-03T14:03:20;3.67;;;1.58;;
75626;SDS011;67372;49.404;11.034;2023-04-03T14:05:49;3.65;;;1.73;;
75626;SDS011;67372;49.404;11.034;2023-04-03T14:08:16;3.45;;;1.67;;
75626;SDS011;67372;49.404;11.034;2023-04-03T14:10:51;2.35;;;1.55;;
75626;SDS011;67372;49.404;11.034;2023-04-03T14:13:19;3.90;;;1.55;;
75626;SDS011;67372;49.404;11.034;2023-04-03T14:15:46;2.33;;;1.40;;
75626;SDS011;67372;49.404;11.034;2023-04-03T14:18:14;2.63;;;1.73;;
75626;SDS011;67372;49.404;11.034;2023-04-03T14:20:43;2.60;;;1.80;;
75626;SDS011;67372;49.404;11.034;2023-04-03T14:23:13;2.58;;;1.60;;
75626;SDS011;67372;49.404;11.034;2023-04-03T14:25:40;2.28;;;1.50;;
75626;SDS011;67372;49.404;11.034;2023-04-03T14:28:13;4.22;;;1.80;;
75626;SDS011;67372;49.404;11.034;2023-04-03T14:30:45;1.80;;;1.35;;
75626;SDS011;67372;49.404;11.034;2023-04-03T14:33:14;1.80;;;1.42;;
75626;SDS011;67372;49.404;11.034;2023-04-03T14:35:42;3.22;;;1.52;;
75626;SDS011;67372;49.404;11.034;2023-04-03T14:40:51;2.67;;;1.38;;
75626;SDS011;67372;49.404;11.034;2023-04-03T14:43:22;2.42;;;1.55;;
75626;SDS011;67372;49.404;11.034;2023-04-03T14:45:49;3.15;;;1.80;;
75626;SDS011;67372;49.404;11.034;2023-04-03T14:50:47;2.60;;;1.45;;
75626;SDS011;67372;49.404;11.034;2023-04-03T14:53:30;2.45;;;1.70;;
75626;SDS011;67372;49.404;11.034;2023-04-03T14:56:11;3.67;;;1.73;;
75626;SDS011;67372;49.404;11.034;2023-04-03T14:58:40;3.42;;;1.85;;
75626;SDS011;67372;49.404;11.034;2023-04-03T15:01:06;3.17;;;1.67;;
75626;SDS011;67372;49.404;11.034;2023-04-03T15:03:32;2.83;;;1.73;;
75626;SDS011;67372;49.404;11.034;2023-04-03T15:05:59;3.83;;;1.58;;
75626;SDS011;67372;49.404;11.034;2023-04-03T15:08:26;2.55;;;1.60;;
75626;SDS011;67372;49.404;11.034;2023-04-03T15:10:54;4.30;;;2.03;;
75626;SDS011;67372;49.404;11.034;2023-04-03T15:13:21;3.10;;;1.73;;
75626;SDS011;67372;49.404;11.034;2023-04-03T15:15:48;4.18;;;1.73;;
75626;SDS011;67372;49.404;11.034;2023-04-03T15:18:23;2.88;;;1.70;;
75626;SDS011;67372;49.404;11.034;2023-04-03T15:20:51;2.50;;;1.40;;
75626;SDS011;67372;49.404;11.034;2023-04-03T15:25:46;2.92;;;1.80;;
75626;SDS011;67372;49.404;11.034;2023-04-03T15:28:29;2.65;;;1.52;;
75626;SDS011;67372;49.404;11.034;2023-04-03T15:30:56;2.35;;;1.63;;
75626;SDS011;67372;49.404;11.034;2023-04-03T15:33:23;3.40;;;1.80;;
75626;SDS011;67372;49.404;11.034;2023-04-03T15:35:50;4.05;;;1.83;;
75626;SDS011;67372;49.404;11.034;2023-04-03T15:38:17;3.78;;;1.80;;
75626;SDS011;67372;49.404;11.034;2023-04-03T15:40:44;1.58;;;1.00;;
75626;SDS011;67372;49.404;11.034;2023-04-03T15:43:10;2.17;;;1.50;;
75626;SDS011;67372;49.404;11.034;2023-04-03T15:45:36;4.32;;;1.85;;
75626;SDS011;67372;49.404;11.034;2023-04-03T15:48:04;3.10;;;1.60;;
75626;SDS011;67372;49.404;11.034;2023-04-03T15:50:32;2.22;;;1.67;;
75626;SDS011;67372;49.404;11.034;2023-04-03T15:53:00;2.55;;;1.88;;
75626;SDS011;67372;49.404;11.034;2023-04-03T15:55:28;3.92;;;1.70;;
75626;SDS011;67372;49.404;11.034;2023-04-03T15:57:56;2.60;;;1.50;;
75626;SDS011;67372;49.404;11.034;2023-04-03T16:00:23;2.63;;;1.55;;
75626;SDS011;67372;49.404;11.034;2023-04-03T16:03:00;2.50;;;1.60;;
75626;SDS011;67372;49.404;11.034;2023-04-03T16:05:31;3.42;;;1.92;;
75626;SDS011;67372;49.404;11.034;2023-04-03T16:07:59;2.25;;;1.70;;
75626;SDS011;67372;49.404;11.034;2023-04-03T16:10:26;2.75;;;1.70;;
75626;SDS011;67372;49.404;11.034;2023-04-03T16:12:53;3.53;;;1.60;;
75626;SDS011;67372;49.404;11.034;2023-04-03T16:15:19;2.97;;;1.67;;
75626;SDS011;67372;49.404;11.034;2023-04-03T16:17:47;3.10;;;1.42;;
75626;SDS011;67372;49.404;11.034;2023-04-03T16:20:14;3.65;;;1.60;;
75626;SDS011;67372;49.404;11.034;2023-04-03T16:22:41;3.17;;;1.80;;
75626;SDS011;67372;49.404;11.034;2023-04-03T16:25:08;2.83;;;1.20;;
75626;SDS011;67372;49.404;11.034;2023-04-03T16:27:35;4.78;;;2.15;;